createdAt,value
2017-09-27T00:01:11.858Z,18.12
2017-09-27T00:04:14.142Z,17.67
2017-09-27T00:07:16.166Z,18.15
2017-09-27T00:10:18.490Z,16.92
2017-09-27T00:13:20.447Z,17.48
2017-09-27T00:16:22.820Z,17.42
2017-09-27T00:19:24.855Z,17.02
2017-09-27T00:22:27.201Z,16.95
2017-09-27T00:25:29.137Z,17.98
2017-09-27T00:28:32.247Z,18.15
2017-09-27T00:31:34.192Z,19.23
2017-09-27T00:34:36.616Z,18.27
2017-09-27T00:37:39.328Z,17.83
2017-09-27T00:40:41.669Z,20.45
2017-09-27T00:43:43.607Z,19.83
2017-09-27T00:46:45.984Z,21.23
2017-09-27T00:49:47.920Z,21.67
2017-09-27T00:52:50.270Z,25.52
2017-09-27T00:55:52.212Z,26.17
2017-09-27T00:58:54.535Z,27.77
2017-09-27T01:01:56.535Z,28.48
2017-09-27T01:04:58.896Z,32.33
2017-09-27T01:08:00.912Z,35.42
2017-09-27T01:11:05.608Z,38.80
2017-09-27T01:14:07.595Z,41.13
2017-09-27T01:17:09.963Z,38.72
2017-09-27T01:20:11.912Z,39.95
2017-09-27T01:23:14.271Z,42.72
2017-09-27T01:26:16.207Z,42.47
2017-09-27T01:29:18.573Z,42.67
2017-09-27T01:32:20.516Z,45.80
2017-09-27T01:35:22.870Z,43.63
2017-09-27T01:38:24.801Z,45.08
2017-09-27T01:41:27.902Z,47.22
2017-09-27T01:44:29.830Z,48.33
2017-09-27T01:47:32.308Z,47.33
2017-09-27T01:50:34.245Z,48.53
2017-09-27T01:53:36.607Z,50.60
2017-09-27T01:56:38.543Z,48.65
2017-09-27T01:59:40.908Z,51.03
2017-09-27T02:02:42.837Z,51.05
2017-09-27T02:05:45.948Z,50.33
2017-09-27T02:08:47.892Z,50.28
2017-09-27T02:11:50.244Z,50.60
2017-09-27T02:14:52.213Z,50.12
2017-09-27T02:17:54.654Z,49.65
2017-09-27T02:20:56.606Z,51.83
2017-09-27T02:23:58.999Z,53.55
2017-09-27T02:27:00.935Z,53.83
2017-09-27T02:30:03.218Z,51.72
2017-09-27T02:33:05.935Z,52.40
2017-09-27T02:36:09.106Z,49.28
2017-09-27T02:39:11.068Z,51.05
2017-09-27T02:42:13.352Z,48.47
2017-09-27T02:45:15.359Z,49.13
2017-09-27T02:48:17.711Z,52.03
2017-09-27T02:51:19.665Z,50.28
2017-09-27T02:54:22.031Z,52.47
2017-09-27T02:57:24.079Z,51.88
2017-09-27T03:00:26.423Z,48.67
2017-09-27T03:03:28.363Z,54.05
2017-09-27T03:06:31.265Z,50.58
2017-09-27T03:09:33.219Z,53.55
2017-09-27T03:12:35.554Z,50.38
2017-09-27T03:15:37.498Z,50.08
2017-09-27T03:18:40.889Z,51.00
2017-09-27T03:21:42.824Z,51.30
2017-09-27T03:24:45.187Z,50.90
2017-09-27T03:27:47.117Z,52.47
2017-09-27T03:30:49.496Z,52.13
2017-09-27T03:33:51.447Z,48.50
2017-09-27T03:36:53.804Z,51.15
2017-09-27T03:39:55.850Z,49.83
2017-09-27T03:42:58.218Z,49.70
2017-09-27T03:46:00.165Z,51.10
2017-09-27T03:49:02.533Z,51.45
2017-09-27T03:52:04.574Z,50.58
2017-09-27T03:55:06.935Z,50.58
2017-09-27T03:58:08.883Z,50.85
2017-09-27T04:01:11.240Z,52.53
2017-09-27T04:04:13.172Z,51.28
2017-09-27T04:07:15.539Z,50.20
2017-09-27T04:10:17.495Z,52.58
2017-09-27T04:13:19.834Z,50.63
2017-09-27T04:16:21.889Z,51.00
2017-09-27T04:19:24.244Z,50.83
2017-09-27T04:22:26.397Z,50.50
2017-09-27T04:25:28.754Z,52.10
2017-09-27T04:28:30.690Z,52.30
2017-09-27T04:31:33.073Z,50.45
2017-09-27T04:34:35.108Z,51.53
2017-09-27T04:37:37.459Z,50.80
2017-09-27T04:40:39.395Z,50.92
2017-09-27T04:43:42.597Z,51.90
2017-09-27T04:46:44.556Z,51.33
2017-09-27T04:49:46.914Z,50.85
2017-09-27T04:52:48.841Z,50.42
2017-09-27T04:55:51.248Z,51.50
2017-09-27T04:58:53.174Z,49.97
2017-09-27T05:01:55.520Z,50.75
2017-09-27T05:04:57.461Z,51.08
2017-09-27T05:07:59.826Z,50.65
2017-09-27T05:11:01.877Z,49.10
2017-09-27T05:14:04.234Z,49.10
2017-09-27T05:17:06.180Z,48.70
2017-09-27T05:20:08.531Z,48.72
2017-09-27T05:23:10.470Z,50.30
2017-09-27T05:26:12.831Z,48.22
2017-09-27T05:29:14.771Z,51.50
2017-09-27T05:32:17.088Z,48.97
2017-09-27T05:35:19.088Z,50.53
2017-09-27T05:38:21.447Z,50.12
2017-09-27T05:41:23.391Z,48.13
2017-09-27T05:44:25.740Z,51.05
2017-09-27T05:47:27.700Z,48.40
2017-09-27T05:50:30.005Z,49.05
2017-09-27T05:53:32.008Z,50.35
2017-09-27T05:56:34.349Z,48.75
2017-09-27T05:59:37.058Z,50.38
2017-09-27T06:02:39.389Z,51.70
2017-09-27T06:05:41.314Z,49.55
2017-09-27T06:08:44.411Z,48.85
2017-09-27T06:11:46.447Z,48.15
2017-09-27T06:14:48.814Z,49.72
2017-09-27T06:17:50.747Z,47.97
2017-09-27T06:20:53.227Z,48.63
2017-09-27T06:23:55.214Z,46.72
2017-09-27T06:26:57.541Z,44.30
2017-09-27T06:29:59.470Z,42.92
2017-09-27T06:33:01.829Z,45.92
2017-09-27T06:36:04.718Z,46.03
2017-09-27T06:39:07.077Z,45.75
2017-09-27T06:42:09.135Z,46.88
2017-09-27T06:45:11.485Z,48.00
2017-09-27T06:48:13.518Z,47.13
2017-09-27T06:51:15.878Z,47.58
2017-09-27T06:54:17.823Z,46.65
2017-09-27T06:57:20.176Z,46.75
2017-09-27T07:00:22.125Z,46.97
2017-09-27T07:03:24.491Z,46.88
2017-09-27T07:06:26.588Z,43.72
2017-09-27T07:09:28.945Z,43.97
2017-09-27T07:12:30.885Z,43.25
2017-09-27T07:15:34.017Z,44.28
2017-09-27T07:18:35.976Z,43.80
2017-09-27T07:21:38.337Z,42.25
2017-09-27T07:24:40.378Z,42.97
2017-09-27T07:27:42.732Z,43.15
2017-09-27T07:30:44.666Z,42.28
2017-09-27T07:33:47.756Z,41.37
2017-09-27T07:36:49.708Z,39.70
2017-09-27T07:39:52.080Z,40.63
2017-09-27T07:42:54.024Z,39.22
2017-09-27T07:45:56.373Z,37.95
2017-09-27T07:48:58.309Z,40.08
2017-09-27T07:52:00.654Z,39.80
2017-09-27T07:55:03.467Z,39.25
2017-09-27T07:58:05.905Z,40.60
2017-09-27T08:01:07.831Z,39.55
2017-09-27T08:04:10.937Z,39.00
2017-09-27T08:07:12.876Z,37.40
2017-09-27T08:10:15.184Z,38.45
2017-09-27T08:13:17.276Z,40.40
2017-09-27T08:16:19.638Z,40.83
2017-09-27T08:19:21.814Z,39.30
2017-09-27T08:22:24.845Z,38.28
2017-09-27T08:25:26.826Z,41.10
2017-09-27T08:28:29.181Z,38.38
2017-09-27T08:31:31.230Z,38.50
2017-09-27T08:34:33.575Z,38.65
2017-09-27T08:37:35.518Z,37.95
2017-09-27T08:40:37.892Z,37.42
2017-09-27T08:43:39.820Z,36.35
2017-09-27T08:46:42.294Z,37.35
2017-09-27T08:49:44.338Z,36.58
2017-09-27T08:52:46.707Z,37.00
2017-09-27T08:55:48.750Z,36.80
2017-09-27T08:58:51.106Z,38.05
2017-09-27T09:01:53.058Z,36.55
2017-09-27T09:04:55.413Z,37.05
2017-09-27T09:07:57.363Z,36.95
2017-09-27T09:10:59.711Z,36.97
2017-09-27T09:14:01.672Z,34.85
2017-09-27T09:17:04.023Z,35.90
2017-09-27T09:20:05.967Z,36.28
2017-09-27T09:23:08.332Z,36.00
2017-09-27T09:26:10.275Z,34.83
2017-09-27T09:29:12.632Z,35.22
2017-09-27T09:32:14.569Z,35.83
2017-09-27T09:35:16.631Z,35.70
2017-09-27T09:38:18.592Z,37.50
2017-09-27T09:41:20.740Z,38.75
2017-09-27T09:44:22.717Z,38.75
2017-09-27T09:47:24.853Z,39.33
2017-09-27T09:50:26.797Z,39.17
2017-09-27T09:53:28.844Z,38.42
2017-09-27T09:56:30.792Z,38.72
2017-09-27T09:59:32.944Z,40.45
2017-09-27T10:02:34.985Z,38.47
2017-09-27T10:05:37.349Z,38.05
2017-09-27T10:08:39.287Z,38.45
2017-09-27T10:11:41.347Z,37.08
2017-09-27T10:14:43.291Z,37.35
2017-09-27T10:17:45.653Z,37.33
2017-09-27T10:20:47.687Z,36.40
2017-09-27T10:23:50.057Z,38.45
2017-09-27T10:26:51.991Z,39.97
2017-09-27T10:29:54.350Z,37.88
2017-09-27T10:32:56.293Z,38.95
2017-09-27T10:35:58.350Z,38.30
2017-09-27T10:39:00.291Z,39.45
2017-09-27T10:42:02.457Z,38.28
2017-09-27T10:45:04.398Z,36.80
2017-09-27T10:48:06.568Z,36.13
2017-09-27T10:51:08.554Z,36.50
2017-09-27T10:54:10.654Z,35.13
2017-09-27T10:57:12.610Z,36.58
2017-09-27T11:00:14.766Z,41.22
2017-09-27T11:03:16.716Z,48.87
2017-09-27T11:06:18.870Z,39.85
2017-09-27T11:09:20.820Z,39.53
2017-09-27T11:12:22.833Z,39.30
2017-09-27T11:15:25.536Z,37.83
2017-09-27T11:18:27.794Z,40.95
2017-09-27T11:21:29.856Z,39.63
2017-09-27T11:24:32.194Z,41.72
2017-09-27T11:27:34.138Z,43.70
2017-09-27T11:30:36.091Z,42.03
2017-09-27T11:33:38.022Z,40.95
2017-09-27T11:36:40.404Z,39.63
2017-09-27T11:39:42.435Z,40.65
2017-09-27T11:42:44.813Z,40.35
2017-09-27T11:45:46.811Z,38.55
2017-09-27T11:48:50.664Z,43.20
2017-09-27T11:51:52.608Z,41.90
2017-09-27T11:54:55.052Z,39.05
2017-09-27T11:57:56.996Z,37.67
2017-09-27T12:00:59.893Z,39.20
2017-09-27T12:04:02.638Z,37.63
2017-09-27T12:07:04.982Z,39.17
2017-09-27T12:10:06.939Z,38.22
2017-09-27T12:13:09.007Z,38.95
2017-09-27T12:16:11.144Z,38.40
2017-09-27T12:19:13.576Z,38.47
2017-09-27T12:22:16.281Z,39.13
2017-09-27T12:25:18.648Z,40.12
2017-09-27T12:28:20.877Z,40.50
2017-09-27T12:31:23.266Z,38.83
2017-09-27T12:34:25.303Z,39.03
2017-09-27T12:37:27.663Z,39.33
2017-09-27T12:40:29.704Z,37.05
2017-09-27T12:43:31.965Z,38.28
2017-09-27T12:46:33.898Z,41.65
2017-09-27T12:49:36.256Z,40.67
2017-09-27T12:52:38.210Z,38.25
2017-09-27T12:55:41.320Z,40.17
2017-09-27T12:58:43.358Z,39.85
2017-09-27T13:01:45.731Z,39.45
2017-09-27T13:04:47.680Z,38.22
2017-09-27T13:07:50.046Z,37.13
2017-09-27T13:10:51.987Z,39.60
2017-09-27T13:13:54.336Z,40.95
2017-09-27T13:16:56.282Z,36.03
2017-09-27T13:19:58.646Z,37.08
2017-09-27T13:23:00.692Z,37.40
2017-09-27T13:26:02.962Z,40.30
2017-09-27T13:29:04.999Z,38.15
2017-09-27T13:32:07.387Z,37.92
2017-09-27T13:35:09.429Z,36.20
2017-09-27T13:38:11.775Z,35.88
2017-09-27T13:41:13.738Z,34.78
2017-09-27T13:44:16.107Z,34.28
2017-09-27T13:47:18.055Z,34.58
2017-09-27T13:50:20.418Z,34.17
2017-09-27T13:53:22.361Z,35.20
2017-09-27T13:56:25.466Z,35.53
2017-09-27T13:59:27.438Z,35.40
2017-09-27T14:02:29.976Z,34.45
2017-09-27T14:05:31.906Z,36.05
2017-09-27T14:08:34.191Z,34.67
2017-09-27T14:11:36.231Z,36.17
2017-09-27T14:14:38.600Z,36.65
2017-09-27T14:17:40.639Z,35.47
2017-09-27T14:20:43.013Z,35.00
2017-09-27T14:23:45.086Z,35.45
2017-09-27T14:26:47.405Z,34.35
2017-09-27T14:29:49.338Z,36.65
2017-09-27T14:32:51.860Z,35.78
2017-09-27T14:35:53.807Z,34.92
2017-09-27T14:38:56.168Z,34.42
2017-09-27T14:41:58.234Z,35.58
2017-09-27T14:45:00.592Z,36.67
2017-09-27T14:48:02.657Z,36.85
2017-09-27T14:51:04.990Z,37.20
2017-09-27T14:54:07.044Z,38.75
2017-09-27T14:57:09.468Z,38.53
2017-09-27T15:00:12.172Z,39.30
2017-09-27T15:03:14.520Z,40.92
2017-09-27T15:06:16.464Z,42.58
2017-09-27T15:09:18.810Z,40.15
2017-09-27T15:12:20.750Z,39.40
2017-09-27T15:15:23.119Z,39.72
2017-09-27T15:18:25.228Z,37.58
2017-09-27T15:21:27.584Z,38.38
2017-09-27T15:24:29.778Z,38.17
2017-09-27T15:27:32.036Z,39.05
2017-09-27T15:30:34.945Z,38.85
2017-09-27T15:33:37.993Z,38.60
2017-09-27T15:36:39.926Z,37.45
2017-09-27T15:39:42.266Z,37.97
2017-09-27T15:42:44.304Z,35.60
2017-09-27T15:45:46.658Z,34.90
2017-09-27T15:48:48.634Z,33.83
2017-09-27T15:51:50.971Z,33.83
2017-09-27T15:54:52.939Z,34.35
2017-09-27T15:57:55.226Z,34.50
2017-09-27T16:00:57.926Z,34.90
2017-09-27T16:04:00.300Z,33.78
2017-09-27T16:07:02.249Z,33.80
2017-09-27T16:10:04.602Z,35.28
2017-09-27T16:13:06.535Z,34.63
2017-09-27T16:16:09.645Z,33.15
2017-09-27T16:19:11.620Z,34.00
2017-09-27T16:22:13.949Z,34.70
2017-09-27T16:25:15.993Z,34.70
2017-09-27T16:28:19.123Z,34.15
2017-09-27T16:31:21.829Z,34.60
2017-09-27T16:34:24.184Z,35.30
2017-09-27T16:37:26.119Z,33.28
2017-09-27T16:40:28.487Z,36.17
2017-09-27T16:43:30.411Z,35.50
2017-09-27T16:46:32.797Z,38.05
2017-09-27T16:49:34.729Z,37.25
2017-09-27T16:52:37.128Z,36.95
2017-09-27T16:55:39.200Z,36.75
2017-09-27T16:58:42.326Z,38.30
2017-09-27T17:01:44.264Z,37.30
2017-09-27T17:04:46.732Z,37.53
2017-09-27T17:07:48.681Z,39.10
2017-09-27T17:10:51.037Z,39.45
2017-09-27T17:13:52.977Z,40.53
2017-09-27T17:16:55.341Z,41.95
2017-09-27T17:19:57.283Z,40.58
2017-09-27T17:22:59.655Z,39.70
2017-09-27T17:26:01.641Z,41.65
2017-09-27T17:29:03.961Z,41.25
2017-09-27T17:32:06.104Z,42.67
2017-09-27T17:35:08.495Z,42.58
2017-09-27T17:38:10.529Z,42.03
2017-09-27T17:41:12.958Z,46.72
2017-09-27T17:44:14.928Z,44.80
2017-09-27T17:47:17.407Z,44.88
2017-09-27T17:50:19.348Z,45.10
2017-09-27T17:53:22.572Z,44.78
2017-09-27T17:56:25.376Z,48.08
2017-09-27T17:59:27.741Z,42.72
2017-09-27T18:02:29.698Z,43.63
2017-09-27T18:05:32.148Z,44.97
2017-09-27T18:08:34.093Z,49.03
2017-09-27T18:11:37.487Z,115.70
2017-09-27T18:14:39.472Z,83.55
2017-09-27T18:17:41.776Z,90.35
2017-09-27T18:20:43.712Z,57.90
2017-09-27T18:23:46.101Z,46.50
2017-09-27T18:26:48.959Z,46.88
2017-09-27T18:29:51.355Z,46.63
2017-09-27T18:32:53.424Z,46.20
2017-09-27T18:35:56.544Z,44.88
2017-09-27T18:38:59.113Z,46.58
2017-09-27T18:42:01.460Z,45.45
2017-09-27T18:45:03.411Z,48.15
2017-09-27T18:48:05.773Z,49.42
2017-09-27T18:51:07.715Z,47.85
2017-09-27T18:54:10.087Z,48.25
2017-09-27T18:57:12.029Z,47.20
2017-09-27T19:00:14.369Z,48.22
2017-09-27T19:03:16.335Z,46.33
2017-09-27T19:06:19.496Z,48.00
2017-09-27T19:09:21.446Z,49.63
2017-09-27T19:12:23.809Z,50.50
2017-09-27T19:15:25.868Z,47.88
2017-09-27T19:18:28.208Z,47.10
2017-09-27T19:21:30.169Z,48.58
2017-09-27T19:24:32.430Z,51.90
2017-09-27T19:27:34.387Z,51.95
2017-09-27T19:30:36.729Z,49.13
2017-09-27T19:33:38.777Z,50.58
2017-09-27T19:36:41.051Z,51.63
2017-09-27T19:39:43.102Z,51.85
2017-09-27T19:42:45.638Z,52.78
2017-09-27T19:45:47.600Z,52.40
2017-09-27T19:48:49.953Z,50.70
2017-09-27T19:51:51.992Z,51.25
2017-09-27T19:54:54.455Z,51.67
2017-09-27T19:57:56.404Z,52.78
2017-09-27T20:00:58.768Z,52.90
2017-09-27T20:04:00.720Z,54.00
2017-09-27T20:07:03.157Z,54.33
2017-09-27T20:10:05.101Z,53.97
2017-09-27T20:13:07.577Z,52.85
2017-09-27T20:16:09.511Z,52.45
2017-09-27T20:19:11.912Z,52.45
2017-09-27T20:22:13.849Z,52.78
2017-09-27T20:25:16.183Z,52.03
2017-09-27T20:28:18.118Z,55.53
2017-09-27T20:31:20.495Z,53.47
2017-09-27T20:34:22.426Z,53.53
2017-09-27T20:37:24.777Z,54.42
2017-09-27T20:40:27.669Z,57.13
2017-09-27T20:43:30.631Z,56.88
2017-09-27T20:46:32.562Z,60.90
2017-09-27T20:49:35.690Z,57.22
2017-09-27T20:52:37.879Z,57.92
2017-09-27T20:55:41.000Z,62.17
2017-09-27T20:58:42.942Z,61.65
2017-09-27T21:01:45.363Z,59.28
2017-09-27T21:04:48.071Z,64.20
2017-09-27T21:07:50.420Z,60.35
2017-09-27T21:10:52.355Z,66.78
2017-09-27T21:13:54.742Z,67.53
2017-09-27T21:16:56.789Z,65.65
2017-09-27T21:19:59.094Z,60.67
2017-09-27T21:23:01.916Z,69.35
2017-09-27T21:26:04.271Z,66.55
2017-09-27T21:29:06.211Z,63.20
2017-09-27T21:32:08.578Z,59.72
2017-09-27T21:35:10.572Z,59.78
2017-09-27T21:38:13.694Z,63.08
2017-09-27T21:41:15.748Z,61.83
2017-09-27T21:44:18.110Z,63.47
2017-09-27T21:47:20.051Z,63.63
2017-09-27T21:50:22.411Z,59.88
2017-09-27T21:53:24.455Z,63.38
2017-09-27T21:56:26.830Z,65.15
2017-09-27T21:59:28.876Z,58.87
2017-09-27T22:02:31.219Z,67.28
2017-09-27T22:05:33.249Z,63.40
2017-09-27T22:08:36.365Z,63.83
2017-09-27T22:11:38.393Z,61.40
2017-09-27T22:14:40.764Z,72.82
2017-09-27T22:17:42.827Z,75.40
2017-09-27T22:20:45.171Z,76.37
2017-09-27T22:23:47.276Z,73.75
2017-09-27T22:26:50.400Z,74.10
2017-09-27T22:29:52.351Z,79.93
2017-09-27T22:32:54.722Z,85.20
2017-09-27T22:35:56.655Z,71.65
2017-09-27T22:38:59.832Z,67.45
2017-09-27T22:42:01.880Z,64.35
2017-09-27T22:45:04.154Z,64.40
2017-09-27T22:48:06.175Z,64.60
2017-09-27T22:51:08.504Z,69.57
2017-09-27T22:54:10.443Z,76.62
2017-09-27T22:57:12.805Z,80.15
2017-09-27T23:00:14.752Z,80.72
2017-09-27T23:03:17.115Z,71.93
2017-09-27T23:06:19.080Z,78.20
2017-09-27T23:09:21.448Z,77.20
2017-09-27T23:12:23.433Z,79.03
2017-09-27T23:15:26.562Z,86.75
2017-09-27T23:18:28.540Z,92.60
2017-09-27T23:21:31.078Z,94.25
2017-09-27T23:24:33.016Z,89.28
2017-09-27T23:27:35.384Z,91.75
2017-09-27T23:30:37.333Z,91.10
2017-09-27T23:33:39.683Z,94.18
2017-09-27T23:36:41.698Z,91.78
2017-09-27T23:39:44.087Z,97.28
2017-09-27T23:42:46.154Z,96.57
2017-09-27T23:45:49.151Z,95.28
2017-09-27T23:48:51.089Z,93.12
2017-09-27T23:51:53.405Z,87.88
2017-09-27T23:54:55.350Z,101.35
2017-09-27T23:57:57.718Z,96.28
